Terminal Aerodrome Forecast
Issued by NWS

Home | Current Version | Previous Version | Text Only | Print | Product List | Glossary On
Versions: 1 2 3 4 5 6 7 8 9 10 11 12 13 14 15 16 17 18 19 20 21 22 23 24 25
000
FTUS43 KDLH 232121 AAA
TAFHIB
TAF AMD
KHIB 232121Z 2321/2418 22011G18KT P6SM SCT050 BKN090
     FM240000 23010KT P6SM VCSH SCT020 BKN050
     FM240400 VRB03KT P6SM SCT014 SCT050
     FM240700 VRB03KT 4SM BR SCT020
      TEMPO 2408/2412 1SM BR
     FM241500 16006KT P6SM BKN027=

USA.gov is the U.S. government's official web portal to all federal, state and local government web resources and services.